Time;durP1;ratioP1;P1;durP2;ratioP2;P2;SDS_P1;SDS_P2;PMS_P1;PMS_P2;Temp;Humidity;BMP_temperature;BMP_pressure;BME280_temperature;BME280_humidity;BME280_pressure;Samples;Min_cycle;Max_cycle;Signal;HPM_P1;HPM_P2
2023/01/14 00:01:59;;;;;;;;;;;7.70;99.90;;;;;;5097326;28;19994;-62
2023/01/14 00:04:24;;;;;;;;;;;7.70;99.90;;;;;;5097025;28;19912;-62
2023/01/14 00:06:50;;;;;;;;;;;7.80;99.90;;;;;;5096955;28;19940;-61
2023/01/14 00:09:15;;;;;;;;;;;7.90;99.90;;;;;;5096741;28;19927;-62
2023/01/14 00:11:50;;;;;;;;;;;7.80;99.90;;;;;;5096924;28;19977;-61
2023/01/14 00:14:21;;;;;;;;;;;7.80;99.90;;;;;;5097090;28;20323;-61
2023/01/14 00:16:46;;;;;;;;;;;7.80;99.90;;;;;;5096826;28;20377;-62
2023/01/14 00:19:12;;;;;;;;;;;7.80;99.90;;;;;;5097072;28;19915;-62
2023/01/14 00:21:38;;;;;;;;;;;7.80;99.90;;;;;;5096857;28;19961;-61
2023/01/14 00:24:03;;;;;;;;;;;7.80;99.90;;;;;;5096935;28;19912;-62
2023/01/14 00:26:29;;;;;;;;;;;7.70;99.90;;;;;;5096864;28;19908;-62
2023/01/14 00:28:54;;;;;;;;;;;7.50;99.90;;;;;;5096515;28;19990;-62
2023/01/14 00:31:21;;;;;;;;;;;7.40;99.90;;;;;;5096821;28;19909;-62
2023/01/14 00:33:47;;;;;;;;;;;7.30;99.90;;;;;;5078291;28;19914;-62
2023/01/14 00:36:13;;;;;;;;;;;7.30;99.90;;;;;;5096728;28;19908;-61
2023/01/14 00:38:39;;;;;;;;;;;7.50;99.90;;;;;;5096365;28;19968;-62
2023/01/14 00:41:07;;;;;;;;;;;7.50;99.90;;;;;;5096449;28;19912;-62
2023/01/14 00:43:33;;;;;;;;;;;7.70;99.90;;;;;;5095976;28;20289;-61
2023/01/14 00:45:58;;;;;;;;;;;7.90;99.90;;;;;;5096184;28;19908;-62
2023/01/14 00:48:24;;;;;;;;;;;7.90;99.90;;;;;;5096180;28;19957;-62
2023/01/14 00:50:49;;;;;;;;;;;8.00;99.90;;;;;;5096025;28;20010;-61
2023/01/14 00:53:16;;;;;;;;;;;7.90;99.90;;;;;;5078064;28;19916;-61
2023/01/14 00:55:41;;;;;;;;;;;7.90;99.90;;;;;;5096095;28;19958;-62
2023/01/14 00:58:06;;;;;;;;;;;7.90;99.90;;;;;;5095986;28;19908;-61
2023/01/14 01:00:32;;;;;;;;;;;7.90;99.90;;;;;;5095976;28;19923;-61
2023/01/14 01:02:57;;;;;;;;;;;7.90;99.90;;;;;;5096147;28;19923;-62
2023/01/14 01:05:23;;;;;;;;;;;7.80;99.90;;;;;;5096106;28;20158;-62
2023/01/14 01:07:48;;;;;;;;;;;7.80;99.90;;;;;;5096072;28;19916;-62
2023/01/14 01:10:14;;;;;;;;;;;7.70;99.90;;;;;;5095597;28;19978;-61
2023/01/14 01:12:39;;;;;;;;;;;7.70;99.90;;;;;;5095732;28;20053;-61
2023/01/14 01:15:05;;;;;;;;;;;7.70;99.90;;;;;;5095692;28;20366;-61
2023/01/14 01:17:31;;;;;;;;;;;7.70;99.90;;;;;;5095629;28;19908;-62
2023/01/14 01:19:56;;;;;;;;;;;7.70;99.90;;;;;;5095528;28;19915;-61
2023/01/14 01:22:21;;;;;;;;;;;7.70;99.90;;;;;;5095825;28;19947;-62
2023/01/14 01:24:47;;;;;;;;;;;7.80;99.90;;;;;;5095734;28;19908;-62
2023/01/14 01:27:12;;;;;;;;;;;7.80;99.90;;;;;;5095775;28;19908;-61
2023/01/14 01:29:38;;;;;;;;;;;7.80;99.90;;;;;;5077202;28;19912;-61
2023/01/14 01:32:03;;;;;;;;;;;7.80;99.90;;;;;;5095618;28;19916;-62
2023/01/14 01:34:29;;;;;;;;;;;7.80;99.90;;;;;;5095556;28;19908;-62
2023/01/14 01:36:54;;;;;;;;;;;7.80;99.90;;;;;;5095306;28;19912;-61
2023/01/14 01:39:20;;;;;;;;;;;7.80;99.90;;;;;;5095276;28;20385;-61
2023/01/14 01:41:45;;;;;;;;;;;7.80;99.90;;;;;;5095176;28;19908;-61
2023/01/14 01:46:50;;;;;;;;;;;7.80;99.90;;;;;;5091282;28;20382;-63
2023/01/14 01:49:20;;;;;;;;;;;7.80;99.90;;;;;;5091244;28;20003;-62
2023/01/14 01:51:47;;;;;;;;;;;7.80;99.90;;;;;;5091118;28;19913;-63
2023/01/14 01:54:13;;;;;;;;;;;7.80;99.90;;;;;;5091330;28;19951;-63
2023/01/14 01:56:39;;;;;;;;;;;7.80;99.90;;;;;;5091058;28;20003;-62
2023/01/14 01:59:07;;;;;;;;;;;7.80;99.90;;;;;;5090968;28;19935;-62
2023/01/14 02:01:33;;;;;;;;;;;7.80;99.90;;;;;;5090941;28;20343;-62
2023/01/14 02:03:59;;;;;;;;;;;7.70;99.90;;;;;;5090922;28;19912;-63
2023/01/14 02:06:24;;;;;;;;;;;7.70;99.90;;;;;;5091025;28;20388;-62
2023/01/14 02:08:50;;;;;;;;;;;7.70;99.90;;;;;;5091093;28;19912;-63
2023/01/14 02:11:36;;;;;;;;;;;7.70;99.90;;;;;;5090783;28;19959;-62
2023/01/14 02:14:22;;;;;;;;;;;7.70;99.90;;;;;;5090621;28;19909;-63
2023/01/14 02:16:56;;;;;;;;;;;7.70;99.90;;;;;;5090679;28;19908;-62
2023/01/14 02:19:41;;;;;;;;;;;7.70;99.90;;;;;;5090595;28;19908;-62
2023/01/14 02:22:27;;;;;;;;;;;7.70;99.90;;;;;;5090508;28;19908;-63
2023/01/14 02:25:12;;;;;;;;;;;7.70;99.90;;;;;;5090506;28;19974;-63
2023/01/14 02:27:41;;;;;;;;;;;7.70;99.90;;;;;;5089186;28;19919;-63
2023/01/14 02:30:27;;;;;;;;;;;7.70;99.90;;;;;;5090418;28;19909;-63
2023/01/14 02:32:55;;;;;;;;;;;7.70;99.90;;;;;;5090272;28;19931;-63
2023/01/14 02:35:26;;;;;;;;;;;7.70;99.90;;;;;;5090261;28;19919;-63
2023/01/14 02:37:54;;;;;;;;;;;7.70;99.90;;;;;;5090487;28;20385;-63
2023/01/14 02:40:26;;;;;;;;;;;7.70;99.90;;;;;;5090257;28;19966;-63
2023/01/14 02:45:46;;;;;;;;;;;7.70;99.90;;;;;;5101064;28;19927;-63
2023/01/14 02:48:13;;;;;;;;;;;7.60;99.90;;;;;;5110637;28;19915;-63
2023/01/14 02:50:39;;;;;;;;;;;7.60;99.90;;;;;;5110323;28;19908;-63
2023/01/14 02:53:06;;;;;;;;;;;7.60;99.90;;;;;;5110291;28;19912;-62
2023/01/14 02:55:33;;;;;;;;;;;7.60;99.90;;;;;;5110184;28;19971;-63
2023/01/14 02:58:19;;;;;;;;;;;7.60;99.90;;;;;;5097703;28;20449;-63
2023/01/14 03:00:58;;;;;;;;;;;7.60;99.90;;;;;;5096437;28;20266;-62
2023/01/14 03:03:43;;;;;;;;;;;7.60;99.90;;;;;;5096733;28;19908;-63
2023/01/14 03:06:29;;;;;;;;;;;7.50;99.90;;;;;;5096248;28;19965;-62
2023/01/14 03:09:00;;;;;;;;;;;7.50;99.90;;;;;;5096299;28;19939;-62
2023/01/14 03:11:31;;;;;;;;;;;7.50;99.90;;;;;;5096368;28;19958;-62
2023/01/14 03:14:01;;;;;;;;;;;7.40;99.90;;;;;;5096267;28;19948;-63
2023/01/14 03:16:28;;;;;;;;;;;7.30;99.90;;;;;;5096530;28;20354;-63
2023/01/14 03:19:01;;;;;;;;;;;7.30;99.90;;;;;;5096474;28;20381;-63
2023/01/14 03:21:29;;;;;;;;;;;7.30;99.90;;;;;;5096432;28;19908;-62
2023/01/14 03:24:05;;;;;;;;;;;7.20;99.90;;;;;;5096134;28;19931;-63
2023/01/14 03:26:32;;;;;;;;;;;7.20;99.90;;;;;;5096036;28;20317;-63
2023/01/14 03:29:00;;;;;;;;;;;7.10;99.90;;;;;;5096038;28;19998;-62
2023/01/14 03:31:27;;;;;;;;;;;7.10;99.90;;;;;;5096047;28;19915;-63
2023/01/14 03:33:56;;;;;;;;;;;7.10;99.90;;;;;;5095934;28;19989;-63
2023/01/14 03:36:22;;;;;;;;;;;7.10;99.90;;;;;;5095846;28;19908;-63
2023/01/14 03:38:51;;;;;;;;;;;7.00;99.90;;;;;;5095854;28;19908;-63
2023/01/14 03:42:17;;;;;;;;;;;7.00;99.90;;;;;;5095795;28;19908;-62
2023/01/14 03:44:06;;;;;;;;;;;7.00;99.90;;;;;;5095617;28;19944;-63
2023/01/14 03:46:31;;;;;;;;;;;6.90;99.90;;;;;;5095495;28;20380;-62
2023/01/14 03:48:57;;;;;;;;;;;6.90;99.90;;;;;;5095689;28;19915;-63
2023/01/14 03:51:27;;;;;;;;;;;6.90;99.90;;;;;;5095621;28;19970;-63
2023/01/14 03:54:12;;;;;;;;;;;6.90;99.90;;;;;;5095774;28;19908;-63
2023/01/14 03:56:43;;;;;;;;;;;6.90;99.90;;;;;;5095382;28;19946;-63
2023/01/14 03:59:11;;;;;;;;;;;6.90;99.90;;;;;;5095468;28;19915;-62
2023/01/14 04:01:40;;;;;;;;;;;6.90;99.90;;;;;;5095423;28;20384;-63
2023/01/14 04:04:06;;;;;;;;;;;6.90;99.90;;;;;;5095413;28;19908;-63
2023/01/14 04:06:31;;;;;;;;;;;6.90;99.90;;;;;;5095223;28;19919;-64
2023/01/14 04:08:57;;;;;;;;;;;6.80;99.90;;;;;;5094251;28;19908;-63
2023/01/14 04:11:22;;;;;;;;;;;6.80;99.90;;;;;;5095511;28;19908;-63
2023/01/14 04:16:33;;;;;;;;;;;6.90;99.90;;;;;;5094925;28;20393;-62
2023/01/14 04:18:58;;;;;;;;;;;6.90;99.90;;;;;;5076997;28;19925;-63
2023/01/14 04:21:24;;;;;;;;;;;6.90;99.90;;;;;;5095008;28;20369;-63
2023/01/14 04:23:49;;;;;;;;;;;6.90;99.90;;;;;;5095252;28;20362;-63
2023/01/14 04:26:15;;;;;;;;;;;6.90;99.90;;;;;;5094920;28;19912;-63
2023/01/14 04:28:40;;;;;;;;;;;6.80;99.90;;;;;;5094881;28;19919;-63
2023/01/14 04:31:06;;;;;;;;;;;6.80;99.90;;;;;;5095150;28;19916;-63
2023/01/14 04:33:31;;;;;;;;;;;6.70;99.90;;;;;;5094810;28;20004;-63
2023/01/14 04:35:57;;;;;;;;;;;6.70;99.90;;;;;;5094731;28;19962;-63
2023/01/14 04:38:23;;;;;;;;;;;6.60;99.90;;;;;;5094698;28;19908;-63
2023/01/14 04:40:49;;;;;;;;;;;6.60;99.90;;;;;;5094964;28;20007;-63
2023/01/14 04:43:15;;;;;;;;;;;6.60;99.90;;;;;;5094670;28;19916;-63
2023/01/14 04:45:40;;;;;;;;;;;6.60;99.90;;;;;;5094297;28;19924;-63
2023/01/14 04:48:06;;;;;;;;;;;6.60;99.90;;;;;;5094529;28;19915;-63
2023/01/14 04:50:31;;;;;;;;;;;6.60;99.90;;;;;;5094738;28;19965;-63
2023/01/14 04:53:04;;;;;;;;;;;6.60;99.90;;;;;;5094686;28;19915;-63
2023/01/14 04:55:30;;;;;;;;;;;6.70;99.90;;;;;;5094648;28;19970;-63
2023/01/14 04:57:55;;;;;;;;;;;6.70;99.90;;;;;;5094448;28;20353;-63
2023/01/14 05:00:21;;;;;;;;;;;6.60;99.90;;;;;;5094247;28;19916;-63
2023/01/14 05:02:46;;;;;;;;;;;6.60;99.90;;;;;;5094276;28;19916;-63
2023/01/14 05:05:12;;;;;;;;;;;6.60;99.90;;;;;;5076352;28;19912;-63
2023/01/14 05:07:37;;;;;;;;;;;6.60;99.90;;;;;;5094218;28;19955;-63
2023/01/14 05:10:03;;;;;;;;;;;6.60;99.90;;;;;;5094193;28;20350;-63
2023/01/14 05:12:28;;;;;;;;;;;6.60;99.90;;;;;;5094130;28;20327;-63
2023/01/14 05:14:54;;;;;;;;;;;6.60;99.90;;;;;;5094326;28;19916;-63
2023/01/14 05:17:19;;;;;;;;;;;6.60;99.90;;;;;;5094023;28;19912;-63
2023/01/14 05:19:45;;;;;;;;;;;6.50;99.90;;;;;;5093777;28;19908;-63
2023/01/14 05:22:10;;;;;;;;;;;6.40;99.90;;;;;;5094204;28;20369;-63
2023/01/14 05:24:36;;;;;;;;;;;6.40;99.90;;;;;;5093884;28;19940;-63
2023/01/14 05:27:01;;;;;;;;;;;6.40;99.90;;;;;;5093923;28;19908;-63
2023/01/14 05:29:27;;;;;;;;;;;6.40;99.90;;;;;;5093962;28;20015;-63
2023/01/14 05:31:52;;;;;;;;;;;6.40;99.90;;;;;;5093859;28;20357;-63
2023/01/14 05:34:18;;;;;;;;;;;6.40;99.90;;;;;;5093864;28;19915;-63
2023/01/14 05:36:44;;;;;;;;;;;6.40;99.90;;;;;;5076119;28;19990;-63
2023/01/14 05:39:09;;;;;;;;;;;6.40;99.90;;;;;;5093781;28;19908;-63
2023/01/14 05:45:37;;;;;;;;;;;6.40;99.90;;;;;;5093773;28;19915;-63
2023/01/14 05:47:06;;;;;;;;;;;6.40;99.90;;;;;;5078471;28;19920;-62
2023/01/14 05:49:31;;;;;;;;;;;6.50;99.90;;;;;;5093721;28;19991;-63
2023/01/14 05:51:57;;;;;;;;;;;6.40;99.90;;;;;;5075538;28;19908;-63
2023/01/14 05:54:22;;;;;;;;;;;6.40;99.90;;;;;;5093663;28;19908;-63
2023/01/14 05:56:47;;;;;;;;;;;6.40;99.90;;;;;;5093661;28;19915;-63
2023/01/14 05:59:13;;;;;;;;;;;6.30;99.90;;;;;;5093863;28;19936;-63
2023/01/14 06:07:09;;;;;;;;;;;6.30;99.90;;;;;;5093306;28;20308;-63
2023/01/14 06:09:35;;;;;;;;;;;6.30;99.90;;;;;;5093745;28;19908;-63
2023/01/14 06:12:03;;;;;;;;;;;6.40;99.90;;;;;;5093709;28;19912;-63
2023/01/14 06:14:30;;;;;;;;;;;6.40;99.90;;;;;;5093457;28;20021;-63
2023/01/14 06:16:57;;;;;;;;;;;6.40;99.90;;;;;;5093694;28;19909;-63
2023/01/14 06:19:23;;;;;;;;;;;6.40;99.90;;;;;;5093657;28;19908;-64
2023/01/14 06:21:48;;;;;;;;;;;6.30;99.90;;;;;;5093388;28;19969;-63
2023/01/14 06:24:13;;;;;;;;;;;6.40;99.90;;;;;;5093366;28;19908;-62
2023/01/14 06:26:39;;;;;;;;;;;6.40;99.90;;;;;;5093253;28;19912;-63
2023/01/14 06:29:06;;;;;;;;;;;6.40;99.90;;;;;;5093578;28;19916;-62
2023/01/14 06:31:32;;;;;;;;;;;6.50;99.90;;;;;;5093670;28;19919;-63
2023/01/14 06:33:58;;;;;;;;;;;6.50;99.90;;;;;;5097094;28;19912;-63
2023/01/14 06:36:24;;;;;;;;;;;6.60;99.90;;;;;;5097306;28;19908;-62
2023/01/14 06:38:49;;;;;;;;;;;6.60;99.90;;;;;;5097023;28;20263;-62
2023/01/14 06:41:15;;;;;;;;;;;6.70;99.90;;;;;;5096973;28;20015;-62
2023/01/14 06:43:42;;;;;;;;;;;6.70;99.90;;;;;;5096973;28;19912;-63
2023/01/14 06:46:08;;;;;;;;;;;6.70;99.90;;;;;;5075205;28;19920;-63
2023/01/14 06:48:34;;;;;;;;;;;6.70;99.90;;;;;;5076554;28;19915;-62
2023/01/14 06:51:03;;;;;;;;;;;6.70;99.90;;;;;;5076783;28;20010;-62
2023/01/14 06:53:29;;;;;;;;;;;6.80;99.90;;;;;;5076732;28;19951;-63
2023/01/14 06:55:54;;;;;;;;;;;6.70;99.90;;;;;;5076502;28;20281;-62
2023/01/14 06:58:20;;;;;;;;;;;6.70;99.90;;;;;;5076354;28;20059;-63
2023/01/14 07:00:45;;;;;;;;;;;6.70;99.90;;;;;;5076351;28;19908;-62
2023/01/14 07:03:11;;;;;;;;;;;6.70;99.90;;;;;;5076294;28;19919;-62
2023/01/14 07:05:36;;;;;;;;;;;6.70;99.90;;;;;;5076429;28;19919;-63
2023/01/14 07:08:02;;;;;;;;;;;6.70;99.90;;;;;;5076251;28;20444;-62
2023/01/14 07:10:27;;;;;;;;;;;6.70;99.90;;;;;;5076197;28;19916;-62
2023/01/14 07:12:52;;;;;;;;;;;6.80;99.90;;;;;;5076121;28;19962;-63
2023/01/14 07:15:19;;;;;;;;;;;6.80;99.90;;;;;;5076273;28;19908;-62
2023/01/14 07:17:45;;;;;;;;;;;6.80;99.90;;;;;;5076083;28;19996;-62
2023/01/14 07:20:11;;;;;;;;;;;6.80;99.90;;;;;;5076341;28;19943;-62
2023/01/14 07:22:36;;;;;;;;;;;6.80;99.90;;;;;;5074722;28;19916;-62
2023/01/14 07:25:02;;;;;;;;;;;6.80;99.90;;;;;;5076111;28;20370;-62
2023/01/14 07:27:28;;;;;;;;;;;6.90;99.90;;;;;;5076178;28;19944;-62
2023/01/14 07:29:54;;;;;;;;;;;6.80;99.90;;;;;;5076119;28;19916;-63
2023/01/14 07:32:19;;;;;;;;;;;6.80;99.90;;;;;;5076074;28;19960;-62
2023/01/14 07:34:45;;;;;;;;;;;6.80;99.90;;;;;;5076061;28;19908;-63
2023/01/14 07:37:10;;;;;;;;;;;6.90;99.90;;;;;;5075982;28;19913;-63
2023/01/14 07:39:36;;;;;;;;;;;6.90;99.90;;;;;;5075917;28;19909;-62
2023/01/14 07:42:01;;;;;;;;;;;6.90;99.90;;;;;;5075594;28;20354;-63
2023/01/14 07:44:27;;;;;;;;;;;6.90;99.90;;;;;;5075962;28;19916;-63
2023/01/14 07:46:54;;;;;;;;;;;6.90;99.90;;;;;;5095979;28;19916;-63
2023/01/14 07:49:20;;;;;;;;;;;7.00;99.90;;;;;;5095983;28;20301;-63
2023/01/14 07:51:46;;;;;;;;;;;7.00;99.90;;;;;;5095888;28;20258;-62
2023/01/14 07:54:11;;;;;;;;;;;7.00;99.90;;;;;;5095827;28;19958;-62
2023/01/14 07:56:37;;;;;;;;;;;7.00;99.90;;;;;;5095804;28;19912;-62
2023/01/14 07:59:02;;;;;;;;;;;7.10;99.90;;;;;;5095455;28;20440;-62
2023/01/14 08:01:28;;;;;;;;;;;7.20;99.90;;;;;;5095442;28;19908;-62
2023/01/14 08:03:53;;;;;;;;;;;7.20;99.90;;;;;;5095662;28;19962;-64
2023/01/14 08:06:19;;;;;;;;;;;7.20;99.90;;;;;;5095279;28;19912;-62
2023/01/14 08:08:44;;;;;;;;;;;7.30;99.90;;;;;;5095296;28;19909;-62
2023/01/14 08:11:09;;;;;;;;;;;7.30;99.90;;;;;;5095207;28;19912;-62
2023/01/14 08:13:35;;;;;;;;;;;7.30;99.90;;;;;;5095427;28;19915;-62
2023/01/14 08:16:01;;;;;;;;;;;7.30;99.90;;;;;;5077055;28;19912;-63
2023/01/14 08:18:29;;;;;;;;;;;7.30;99.90;;;;;;5095370;28;19914;-63
2023/01/14 08:20:56;;;;;;;;;;;7.20;99.90;;;;;;5095279;28;19908;-63
2023/01/14 08:23:21;;;;;;;;;;;7.20;99.90;;;;;;5094984;28;19912;-62
2023/01/14 08:25:47;;;;;;;;;;;7.20;99.90;;;;;;5094911;28;19919;-62
2023/01/14 08:28:12;;;;;;;;;;;7.20;99.90;;;;;;5094904;28;19915;-62
2023/01/14 08:30:37;;;;;;;;;;;7.20;99.90;;;;;;5094878;28;19908;-63
2023/01/14 08:33:03;;;;;;;;;;;7.20;99.90;;;;;;5095068;28;19915;-62
2023/01/14 08:35:28;;;;;;;;;;;7.20;99.90;;;;;;5094997;28;19908;-62
2023/01/14 08:37:54;;;;;;;;;;;7.20;99.90;;;;;;5094993;28;19916;-63
2023/01/14 08:40:19;;;;;;;;;;;7.10;99.90;;;;;;5094730;28;19912;-63
2023/01/14 08:42:45;;;;;;;;;;;7.20;99.90;;;;;;5094931;28;20386;-62
2023/01/14 08:45:11;;;;;;;;;;;7.20;99.90;;;;;;5094526;28;20352;-62
2023/01/14 08:47:36;;;;;;;;;;;7.20;99.90;;;;;;5094535;28;19916;-62
2023/01/14 08:50:02;;;;;;;;;;;7.20;99.90;;;;;;5094748;28;19936;-63
2023/01/14 08:52:29;;;;;;;;;;;7.20;99.90;;;;;;5094462;28;20358;-63
2023/01/14 08:54:55;;;;;;;;;;;7.10;99.90;;;;;;5075901;28;19931;-63
2023/01/14 08:57:20;;;;;;;;;;;7.10;99.90;;;;;;5094415;28;19912;-62
2023/01/14 08:59:46;;;;;;;;;;;7.00;99.90;;;;;;5094323;28;20451;-62
2023/01/14 09:02:13;;;;;;;;;;;7.10;99.90;;;;;;5076609;28;20331;-63
2023/01/14 09:04:39;;;;;;;;;;;7.10;99.90;;;;;;5094216;28;19912;-62
2023/01/14 09:18:06;;;;;;;;;;;7.10;99.90;;;;;;5093858;28;19908;-63
2023/01/14 09:20:33;;;;;;;;;;;7.10;99.90;;;;;;5094013;28;20396;-63
2023/01/14 09:22:59;;;;;;;;;;;7.20;99.90;;;;;;5094234;28;19939;-63
2023/01/14 09:25:24;;;;;;;;;;;7.20;99.90;;;;;;5093774;28;20411;-63
2023/01/14 09:27:50;;;;;;;;;;;7.20;99.90;;;;;;5093911;28;19939;-63
2023/01/14 09:30:15;;;;;;;;;;;7.20;99.90;;;;;;5093763;28;20370;-62
2023/01/14 09:32:41;;;;;;;;;;;7.20;99.90;;;;;;5093628;28;20290;-63
2023/01/14 09:35:07;;;;;;;;;;;7.20;99.90;;;;;;5093832;28;19912;-63
2023/01/14 09:37:33;;;;;;;;;;;7.20;99.90;;;;;;5093790;28;19961;-62
2023/01/14 09:39:59;;;;;;;;;;;7.30;99.90;;;;;;5094049;28;19908;-63
2023/01/14 09:42:29;;;;;;;;;;;7.40;99.90;;;;;;5093717;28;19915;-65
2023/01/14 09:45:01;;;;;;;;;;;7.40;99.90;;;;;;5093647;28;19916;-64
2023/01/14 09:47:28;;;;;;;;;;;7.50;99.90;;;;;;5093666;28;19908;-63
2023/01/14 09:49:53;;;;;;;;;;;7.60;99.90;;;;;;5093961;28;20358;-63
2023/01/14 09:52:34;;;;;;;;;;;7.60;99.90;;;;;;5093658;28;19915;-63
2023/01/14 09:55:19;;;;;;;;;;;7.60;99.90;;;;;;5093897;28;19915;-62
2023/01/14 09:57:54;;;;;;;;;;;7.80;99.90;;;;;;5093576;28;19983;-62
2023/01/14 10:03:18;;;;;;;;;;;7.90;99.90;;;;;;5091197;27;19916;-61
2023/01/14 10:05:49;;;;;;;;;;;7.90;99.90;;;;;;5091133;28;19913;-61
2023/01/14 10:08:15;;;;;;;;;;;8.00;99.90;;;;;;5091337;28;19908;-61
2023/01/14 10:10:43;;;;;;;;;;;8.10;99.90;;;;;;5091242;28;19999;-61
2023/01/14 10:13:12;;;;;;;;;;;8.10;99.90;;;;;;5091238;28;19914;-61
2023/01/14 10:15:45;;;;;;;;;;;8.20;99.90;;;;;;5090898;28;19909;-61
2023/01/14 10:18:22;;;;;;;;;;;8.10;99.90;;;;;;5090797;28;19915;-61
2023/01/14 10:21:07;;;;;;;;;;;8.20;99.90;;;;;;5090717;28;19952;-61
2023/01/14 10:23:37;;;;;;;;;;;8.30;99.90;;;;;;5118206;28;19912;-61
2023/01/14 10:26:09;;;;;;;;;;;8.30;99.90;;;;;;5091040;28;19915;-61
2023/01/14 10:28:35;;;;;;;;;;;8.30;99.90;;;;;;5090695;28;19909;-61
2023/01/14 10:31:01;;;;;;;;;;;8.40;99.90;;;;;;5090890;28;19908;-61
2023/01/14 10:33:27;;;;;;;;;;;8.40;99.90;;;;;;5090603;28;19916;-61
2023/01/14 10:36:01;;;;;;;;;;;8.40;99.90;;;;;;5090773;28;19908;-61
2023/01/14 10:38:27;;;;;;;;;;;8.50;99.90;;;;;;5090477;28;19934;-61
2023/01/14 10:40:57;;;;;;;;;;;8.50;99.90;;;;;;5090296;28;19912;-61
2023/01/14 10:43:28;;;;;;;;;;;8.60;99.90;;;;;;5090420;28;20451;-61
2023/01/14 10:45:53;;;;;;;;;;;8.60;99.90;;;;;;5090596;28;20298;-61
2023/01/14 10:48:20;;;;;;;;;;;8.70;99.90;;;;;;5090557;28;19912;-61
2023/01/14 10:50:45;;;;;;;;;;;8.70;99.90;;;;;;5090550;28;19913;-61
2023/01/14 10:53:19;;;;;;;;;;;8.80;99.90;;;;;;5090446;28;19915;-61
2023/01/14 10:55:46;;;;;;;;;;;8.80;99.90;;;;;;5090420;28;19987;-61
2023/01/14 10:58:15;;;;;;;;;;;8.70;99.90;;;;;;5090097;28;19908;-61
2023/01/14 11:00:42;;;;;;;;;;;8.70;99.90;;;;;;5091567;28;19915;-61
2023/01/14 11:03:09;;;;;;;;;;;8.70;99.90;;;;;;5110359;28;19915;-61
2023/01/14 11:05:35;;;;;;;;;;;8.60;99.90;;;;;;5110408;28;19912;-61
2023/01/14 11:08:14;;;;;;;;;;;8.60;99.90;;;;;;5110583;28;20259;-61
2023/01/14 11:10:40;;;;;;;;;;;8.50;99.90;;;;;;5110264;28;19912;-61
2023/01/14 11:13:26;;;;;;;;;;;8.50;99.90;;;;;;5103439;28;19908;-61
2023/01/14 11:15:51;;;;;;;;;;;8.40;99.90;;;;;;5096559;28;19961;-61
2023/01/14 11:18:20;;;;;;;;;;;8.40;99.90;;;;;;5096562;28;20002;-61
2023/01/14 11:21:03;;;;;;;;;;;8.40;99.90;;;;;;5096407;28;20370;-61
2023/01/14 11:23:31;;;;;;;;;;;8.30;99.90;;;;;;5096476;28;19909;-61
2023/01/14 11:25:59;;;;;;;;;;;8.30;99.90;;;;;;5096640;28;20007;-62
2023/01/14 11:28:25;;;;;;;;;;;8.30;99.90;;;;;;5096598;28;20411;-61
2023/01/14 11:30:52;;;;;;;;;;;8.30;99.90;;;;;;5078141;28;19912;-61
2023/01/14 11:33:19;;;;;;;;;;;8.30;99.90;;;;;;5096470;28;19912;-61
2023/01/14 11:35:49;;;;;;;;;;;8.20;99.90;;;;;;5096493;28;19954;-61
2023/01/14 11:38:16;;;;;;;;;;;8.20;99.90;;;;;;5096064;28;19908;-61
2023/01/14 11:43:27;;;;;;;;;;;8.20;99.90;;;;;;5095828;28;19912;-62
2023/01/14 11:46:12;;;;;;;;;;;8.20;99.90;;;;;;5096211;28;20002;-62
2023/01/14 11:48:39;;;;;;;;;;;8.30;99.90;;;;;;5095948;28;19962;-61
2023/01/14 11:51:15;;;;;;;;;;;8.30;99.90;;;;;;5095906;28;19909;-62
2023/01/14 11:53:42;;;;;;;;;;;8.30;99.90;;;;;;5095809;28;20094;-61
2023/01/14 11:56:14;;;;;;;;;;;8.30;99.90;;;;;;5096115;28;19908;-62
2023/01/14 11:58:39;;;;;;;;;;;8.40;99.90;;;;;;5095723;28;19908;-62
2023/01/14 12:01:12;;;;;;;;;;;8.40;99.90;;;;;;5095466;28;19927;-62
2023/01/14 12:03:41;;;;;;;;;;;8.50;99.90;;;;;;5095682;28;19951;-62
2023/01/14 12:06:09;;;;;;;;;;;8.50;99.90;;;;;;5095861;28;20251;-63
2023/01/14 12:08:35;;;;;;;;;;;8.50;99.90;;;;;;5095641;28;19914;-62
2023/01/14 12:11:02;;;;;;;;;;;8.50;99.90;;;;;;5095782;28;19950;-62
2023/01/14 12:16:51;;;;;;;;;;;8.50;99.90;;;;;;5095184;28;19962;-62
2023/01/14 12:19:36;;;;;;;;;;;8.50;99.90;;;;;;5095622;28;20376;-62
2023/01/14 12:22:15;;;;;;;;;;;8.50;99.90;;;;;;5095134;28;19918;-62
2023/01/14 12:25:00;;;;;;;;;;;8.50;99.90;;;;;;5094523;28;20019;-62
2023/01/14 12:27:46;;;;;;;;;;;8.50;99.90;;;;;;5095087;28;19930;-62
2023/01/14 12:30:17;;;;;;;;;;;8.50;99.90;;;;;;5095148;28;19962;-62
2023/01/14 12:32:45;;;;;;;;;;;8.60;99.90;;;;;;5095024;28;19908;-63
2023/01/14 12:35:13;;;;;;;;;;;8.60;99.90;;;;;;5095323;28;20373;-62
2023/01/14 12:37:47;;;;;;;;;;;8.60;99.90;;;;;;5095246;28;20323;-62
2023/01/14 12:46:09;;;;;;;;;;;8.80;99.90;;;;;;5094599;28;19908;-63
2023/01/14 12:48:35;;;;;;;;;;;8.80;99.90;;;;;;5095044;28;19930;-63
2023/01/14 12:51:05;;;;;;;;;;;8.90;99.90;;;;;;5094732;28;19991;-63
2023/01/14 12:53:34;;;;;;;;;;;8.90;99.90;;;;;;5094699;28;19908;-63
2023/01/14 12:56:01;;;;;;;;;;;8.90;99.90;;;;;;5094749;28;19908;-63
2023/01/14 12:58:29;;;;;;;;;;;9.10;99.90;;;;;;5094837;28;19915;-62
2023/01/14 13:00:56;;;;;;;;;;;9.20;99.90;;;;;;5094500;28;19920;-62
2023/01/14 13:03:31;;;;;;;;;;;9.20;99.90;;;;;;5094504;28;20370;-62
2023/01/14 13:05:57;;;;;;;;;;;9.20;99.90;;;;;;5094566;28;19908;-62
2023/01/14 13:08:28;;;;;;;;;;;9.20;99.90;;;;;;5094498;28;19916;-62
2023/01/14 13:10:58;;;;;;;;;;;9.30;99.90;;;;;;5076615;28;20002;-62
2023/01/14 13:13:24;;;;;;;;;;;9.30;99.90;;;;;;5094648;28;19908;-62
2023/01/14 13:15:50;;;;;;;;;;;9.30;99.90;;;;;;5094295;28;20020;-61
2023/01/14 13:18:35;;;;;;;;;;;9.30;99.90;;;;;;5094542;28;19914;-62
2023/01/14 13:21:01;;;;;;;;;;;9.40;99.90;;;;;;5094119;28;20342;-61
2023/01/14 13:23:45;;;;;;;;;;;9.40;99.90;;;;;;5094128;28;20361;-62
2023/01/14 13:26:20;;;;;;;;;;;9.40;99.90;;;;;;5094184;28;19912;-62
2023/01/14 13:29:06;;;;;;;;;;;9.40;99.90;;;;;;5094268;28;19912;-62
2023/01/14 13:31:34;;;;;;;;;;;9.40;99.90;;;;;;5093997;28;19931;-61
2023/01/14 13:34:19;;;;;;;;;;;9.40;99.90;;;;;;5094273;28;20373;-63
2023/01/14 13:36:45;;;;;;;;;;;9.50;99.90;;;;;;5093612;28;20362;-61
2023/01/14 13:39:11;;;;;;;;;;;9.40;99.90;;;;;;5094227;28;19962;-62
2023/01/14 13:41:39;;;;;;;;;;;9.40;99.90;;;;;;5094062;28;19912;-62
2023/01/14 13:44:13;;;;;;;;;;;9.50;99.90;;;;;;5094156;28;19908;-62
2023/01/14 13:46:39;;;;;;;;;;;9.50;99.90;;;;;;5093901;28;19909;-62
2023/01/14 13:49:06;;;;;;;;;;;9.50;99.90;;;;;;5093801;28;20314;-62
2023/01/14 13:51:38;;;;;;;;;;;9.40;99.90;;;;;;5094077;28;19912;-62
2023/01/14 13:54:07;;;;;;;;;;;9.40;99.90;;;;;;5075967;28;19915;-62
2023/01/14 13:56:33;;;;;;;;;;;9.40;99.90;;;;;;5093994;28;20354;-62
2023/01/14 13:58:59;;;;;;;;;;;9.40;99.90;;;;;;5094016;28;19962;-63
2023/01/14 14:01:27;;;;;;;;;;;9.40;99.90;;;;;;5093548;28;19920;-62
2023/01/14 14:03:54;;;;;;;;;;;9.30;99.90;;;;;;5093872;28;19915;-62
2023/01/14 14:06:22;;;;;;;;;;;9.30;99.90;;;;;;5093687;28;19961;-62
2023/01/14 14:08:52;;;;;;;;;;;9.30;99.90;;;;;;5093942;28;19931;-61
2023/01/14 14:11:19;;;;;;;;;;;9.30;99.90;;;;;;5093859;28;20014;-62
2023/01/14 14:14:17;;;;;;;;;;;9.30;99.90;;;;;;5093853;28;19957;-61
2023/01/14 14:16:37;;;;;;;;;;;9.40;99.90;;;;;;5093381;28;19908;-61
2023/01/14 14:21:51;;;;;;;;;;;9.30;99.90;;;;;;5071289;28;19919;-61
2023/01/14 14:24:36;;;;;;;;;;;9.30;99.90;;;;;;5071242;28;19919;-61
2023/01/14 14:27:06;;;;;;;;;;;9.30;99.90;;;;;;5070938;28;19915;-61
2023/01/14 14:29:34;;;;;;;;;;;9.30;99.90;;;;;;5070824;28;19908;-61
2023/01/14 14:32:10;;;;;;;;;;;9.30;99.90;;;;;;5071056;28;19919;-61
2023/01/14 14:34:36;;;;;;;;;;;9.30;99.90;;;;;;5070743;28;19917;-61
2023/01/14 14:37:04;;;;;;;;;;;9.30;99.90;;;;;;5070673;28;19958;-61
2023/01/14 14:39:32;;;;;;;;;;;9.30;99.90;;;;;;5070604;28;19958;-61
2023/01/14 14:42:00;;;;;;;;;;;9.30;99.90;;;;;;5070741;28;19908;-61
2023/01/14 14:44:27;;;;;;;;;;;9.30;99.90;;;;;;5070572;28;19909;-65
2023/01/14 14:46:53;;;;;;;;;;;9.30;99.90;;;;;;5070753;28;20007;-61
2023/01/14 14:49:20;;;;;;;;;;;9.30;99.90;;;;;;5070680;28;19960;-62
2023/01/14 14:51:47;;;;;;;;;;;9.30;99.90;;;;;;5070453;28;19909;-62
2023/01/14 14:54:23;;;;;;;;;;;9.30;99.90;;;;;;5085944;28;19915;-61
2023/01/14 14:56:48;;;;;;;;;;;9.20;99.90;;;;;;5070544;28;19913;-62
2023/01/14 14:59:14;;;;;;;;;;;9.30;99.90;;;;;;5070311;28;19916;-62
2023/01/14 15:01:39;;;;;;;;;;;9.30;99.90;;;;;;5070135;28;19970;-62
2023/01/14 15:04:05;;;;;;;;;;;9.30;99.90;;;;;;5070184;28;19909;-61
2023/01/14 15:06:33;;;;;;;;;;;9.30;99.90;;;;;;5070181;28;19915;-61
2023/01/14 15:09:02;;;;;;;;;;;9.30;99.90;;;;;;5070345;28;20364;-61
2023/01/14 15:11:30;;;;;;;;;;;9.30;99.90;;;;;;5070300;28;19958;-61
2023/01/14 15:13:55;;;;;;;;;;;9.30;99.90;;;;;;5070211;28;19909;-61
2023/01/14 15:16:24;;;;;;;;;;;9.30;99.90;;;;;;5069849;28;19908;-61
2023/01/14 15:18:51;;;;;;;;;;;9.30;99.90;;;;;;5070068;28;19951;-61
2023/01/14 15:21:20;;;;;;;;;;;9.30;99.90;;;;;;5085983;28;19965;-61
2023/01/14 15:23:48;;;;;;;;;;;9.30;99.90;;;;;;5090296;28;20002;-62